Allendale, California
Current Conditions -  °F | °C
As of 3:40 PM on Thursday 18 Dec 2014 (Local Time) from KVCB Reporting Station
Overcast Overcast  
Wind Chill: 13°   Ceiling: 4800
Heat Index: 13°   Visibility: 10mi
Dew Point:   Wind: 3mph
Humidity: 80%   Direction: 290°WNW
Pressure: 30.17"   Gusts: NA
Location:  38.4195°N, 122.026°W
Report Text: KVCB 182340Z AUTO 29003KT 10SM SCT016 OVC048 13/09 A3017 RMK AO2 T01280094 TSNO
Loading
Personal Weather Stations






























Interactive Weather Map New forecast layout! Learn more

10-Day Weather Forecast

Advertisements
Track Severe Weather on mobile